sensor_id;sensor_type;location;lat;lon;timestamp;P1;durP1;ratioP1;P2;durP2;ratioP2
21038;SDS011;10678;51.002;4.786;2023-08-17T00:00:34;3.50;;;1.25;;
21038;SDS011;10678;51.002;4.786;2023-08-17T00:02:59;8.90;;;1.92;;
21038;SDS011;10678;51.002;4.786;2023-08-17T00:05:25;7.35;;;1.50;;
21038;SDS011;10678;51.002;4.786;2023-08-17T00:07:52;5.40;;;1.63;;
21038;SDS011;10678;51.002;4.786;2023-08-17T00:10:18;8.60;;;1.83;;
21038;SDS011;10678;51.002;4.786;2023-08-17T00:12:43;5.07;;;1.77;;
21038;SDS011;10678;51.002;4.786;2023-08-17T00:15:09;7.63;;;1.80;;
21038;SDS011;10678;51.002;4.786;2023-08-17T00:17:35;4.93;;;1.70;;
21038;SDS011;10678;51.002;4.786;2023-08-17T00:20:01;9.40;;;1.73;;
21038;SDS011;10678;51.002;4.786;2023-08-17T00:22:29;5.93;;;1.63;;
21038;SDS011;10678;51.002;4.786;2023-08-17T00:24:55;4.53;;;1.60;;
21038;SDS011;10678;51.002;4.786;2023-08-17T00:27:21;5.60;;;1.90;;
21038;SDS011;10678;51.002;4.786;2023-08-17T00:29:47;5.07;;;1.65;;
21038;SDS011;10678;51.002;4.786;2023-08-17T00:32:12;6.25;;;1.65;;
21038;SDS011;10678;51.002;4.786;2023-08-17T00:34:38;6.00;;;2.10;;
21038;SDS011;10678;51.002;4.786;2023-08-17T00:37:03;4.53;;;1.60;;
21038;SDS011;10678;51.002;4.786;2023-08-17T00:39:29;7.13;;;1.63;;
21038;SDS011;10678;51.002;4.786;2023-08-17T00:41:54;6.72;;;2.40;;
21038;SDS011;10678;51.002;4.786;2023-08-17T00:44:20;10.23;;;2.15;;
21038;SDS011;10678;51.002;4.786;2023-08-17T00:46:46;3.72;;;1.65;;
21038;SDS011;10678;51.002;4.786;2023-08-17T00:49:11;6.15;;;1.67;;
21038;SDS011;10678;51.002;4.786;2023-08-17T00:51:37;6.82;;;2.10;;
21038;SDS011;10678;51.002;4.786;2023-08-17T00:54:04;5.15;;;1.95;;
21038;SDS011;10678;51.002;4.786;2023-08-17T00:56:30;11.15;;;2.60;;
21038;SDS011;10678;51.002;4.786;2023-08-17T00:58:56;6.00;;;1.75;;
21038;SDS011;10678;51.002;4.786;2023-08-17T01:01:22;9.02;;;2.38;;
21038;SDS011;10678;51.002;4.786;2023-08-17T01:03:48;10.45;;;1.83;;
21038;SDS011;10678;51.002;4.786;2023-08-17T01:06:13;7.30;;;2.90;;
21038;SDS011;10678;51.002;4.786;2023-08-17T01:08:39;5.18;;;1.90;;
21038;SDS011;10678;51.002;4.786;2023-08-17T01:14:05;4.00;;;1.80;;
21038;SDS011;10678;51.002;4.786;2023-08-17T01:17:11;7.32;;;2.20;;
21038;SDS011;10678;51.002;4.786;2023-08-17T01:19:42;6.43;;;2.00;;
21038;SDS011;10678;51.002;4.786;2023-08-17T01:22:10;8.18;;;2.28;;
21038;SDS011;10678;51.002;4.786;2023-08-17T01:24:39;7.68;;;3.03;;
21038;SDS011;10678;51.002;4.786;2023-08-17T01:27:04;6.40;;;1.88;;
21038;SDS011;10678;51.002;4.786;2023-08-17T01:29:30;6.00;;;2.08;;
21038;SDS011;10678;51.002;4.786;2023-08-17T01:34:39;8.65;;;2.17;;
21038;SDS011;10678;51.002;4.786;2023-08-17T01:37:08;5.43;;;2.08;;
21038;SDS011;10678;51.002;4.786;2023-08-17T01:39:39;4.47;;;2.15;;
21038;SDS011;10678;51.002;4.786;2023-08-17T01:42:08;6.75;;;2.25;;
21038;SDS011;10678;51.002;4.786;2023-08-17T01:44:37;4.50;;;2.15;;
21038;SDS011;10678;51.002;4.786;2023-08-17T01:47:04;7.88;;;2.10;;
21038;SDS011;10678;51.002;4.786;2023-08-17T01:49:30;4.32;;;1.73;;
21038;SDS011;10678;51.002;4.786;2023-08-17T01:51:55;5.28;;;1.88;;
21038;SDS011;10678;51.002;4.786;2023-08-17T01:54:21;6.75;;;1.98;;
21038;SDS011;10678;51.002;4.786;2023-08-17T01:56:47;5.72;;;2.55;;
21038;SDS011;10678;51.002;4.786;2023-08-17T01:59:13;4.47;;;1.60;;
21038;SDS011;10678;51.002;4.786;2023-08-17T02:01:38;5.72;;;2.22;;
21038;SDS011;10678;51.002;4.786;2023-08-17T02:04:04;7.72;;;2.60;;
21038;SDS011;10678;51.002;4.786;2023-08-17T02:06:30;9.35;;;2.20;;
21038;SDS011;10678;51.002;4.786;2023-08-17T02:08:55;6.72;;;2.13;;
21038;SDS011;10678;51.002;4.786;2023-08-17T02:11:22;6.80;;;2.03;;
21038;SDS011;10678;51.002;4.786;2023-08-17T02:13:48;5.53;;;1.90;;
21038;SDS011;10678;51.002;4.786;2023-08-17T02:16:13;9.85;;;2.67;;
21038;SDS011;10678;51.002;4.786;2023-08-17T02:18:39;6.93;;;2.35;;
21038;SDS011;10678;51.002;4.786;2023-08-17T02:21:04;5.82;;;2.20;;
21038;SDS011;10678;51.002;4.786;2023-08-17T02:23:30;8.13;;;2.30;;
21038;SDS011;10678;51.002;4.786;2023-08-17T02:25:56;5.50;;;1.98;;
21038;SDS011;10678;51.002;4.786;2023-08-17T02:28:21;7.22;;;2.60;;
21038;SDS011;10678;51.002;4.786;2023-08-17T02:30:47;9.25;;;2.30;;
21038;SDS011;10678;51.002;4.786;2023-08-17T02:33:13;8.45;;;2.20;;
21038;SDS011;10678;51.002;4.786;2023-08-17T02:35:39;6.30;;;2.33;;
21038;SDS011;10678;51.002;4.786;2023-08-17T02:38:05;9.27;;;2.35;;
21038;SDS011;10678;51.002;4.786;2023-08-17T02:40:30;5.90;;;2.20;;
21038;SDS011;10678;51.002;4.786;2023-08-17T02:42:56;9.85;;;2.72;;
21038;SDS011;10678;51.002;4.786;2023-08-17T02:45:21;6.47;;;2.30;;
21038;SDS011;10678;51.002;4.786;2023-08-17T02:47:47;5.63;;;2.13;;
21038;SDS011;10678;51.002;4.786;2023-08-17T02:50:13;10.25;;;2.45;;
21038;SDS011;10678;51.002;4.786;2023-08-17T02:52:38;5.97;;;2.13;;
21038;SDS011;10678;51.002;4.786;2023-08-17T02:55:04;7.10;;;2.28;;
21038;SDS011;10678;51.002;4.786;2023-08-17T02:57:30;5.60;;;2.10;;
21038;SDS011;10678;51.002;4.786;2023-08-17T02:59:56;6.88;;;2.45;;
21038;SDS011;10678;51.002;4.786;2023-08-17T03:02:21;6.22;;;2.63;;
21038;SDS011;10678;51.002;4.786;2023-08-17T03:04:47;7.55;;;2.33;;
21038;SDS011;10678;51.002;4.786;2023-08-17T03:07:12;7.90;;;2.28;;
21038;SDS011;10678;51.002;4.786;2023-08-17T03:09:38;6.93;;;2.60;;
21038;SDS011;10678;51.002;4.786;2023-08-17T03:12:04;5.28;;;2.50;;
21038;SDS011;10678;51.002;4.786;2023-08-17T03:14:30;8.10;;;2.47;;
21038;SDS011;10678;51.002;4.786;2023-08-17T03:16:55;10.65;;;2.50;;
21038;SDS011;10678;51.002;4.786;2023-08-17T03:19:21;7.57;;;2.83;;
21038;SDS011;10678;51.002;4.786;2023-08-17T03:21:47;9.27;;;2.75;;
21038;SDS011;10678;51.002;4.786;2023-08-17T03:24:12;7.30;;;2.17;;
21038;SDS011;10678;51.002;4.786;2023-08-17T03:26:38;9.88;;;2.42;;
21038;SDS011;10678;51.002;4.786;2023-08-17T03:29:03;9.90;;;3.17;;
21038;SDS011;10678;51.002;4.786;2023-08-17T03:31:29;5.47;;;2.55;;
21038;SDS011;10678;51.002;4.786;2023-08-17T03:33:54;7.03;;;2.58;;
21038;SDS011;10678;51.002;4.786;2023-08-17T03:36:20;8.55;;;2.50;;
21038;SDS011;10678;51.002;4.786;2023-08-17T03:38:46;7.18;;;2.30;;
21038;SDS011;10678;51.002;4.786;2023-08-17T03:41:12;7.63;;;2.33;;
21038;SDS011;10678;51.002;4.786;2023-08-17T03:43:37;6.90;;;2.30;;
21038;SDS011;10678;51.002;4.786;2023-08-17T03:46:04;7.70;;;2.33;;
21038;SDS011;10678;51.002;4.786;2023-08-17T03:48:30;7.72;;;2.33;;
21038;SDS011;10678;51.002;4.786;2023-08-17T03:50:55;7.07;;;3.00;;
21038;SDS011;10678;51.002;4.786;2023-08-17T03:53:21;12.00;;;2.58;;
21038;SDS011;10678;51.002;4.786;2023-08-17T03:55:47;6.57;;;2.30;;
21038;SDS011;10678;51.002;4.786;2023-08-17T03:58:13;11.23;;;2.72;;
21038;SDS011;10678;51.002;4.786;2023-08-17T04:00:39;9.35;;;2.78;;
21038;SDS011;10678;51.002;4.786;2023-08-17T04:03:05;5.15;;;2.25;;
21038;SDS011;10678;51.002;4.786;2023-08-17T04:05:31;7.80;;;2.72;;
21038;SDS011;10678;51.002;4.786;2023-08-17T04:07:58;6.10;;;2.50;;
21038;SDS011;10678;51.002;4.786;2023-08-17T04:10:27;8.15;;;2.15;;
21038;SDS011;10678;51.002;4.786;2023-08-17T04:12:58;7.30;;;2.70;;
21038;SDS011;10678;51.002;4.786;2023-08-17T04:15:24;6.07;;;2.28;;
21038;SDS011;10678;51.002;4.786;2023-08-17T04:17:50;7.25;;;2.17;;
21038;SDS011;10678;51.002;4.786;2023-08-17T04:20:15;9.63;;;3.00;;
21038;SDS011;10678;51.002;4.786;2023-08-17T04:22:43;6.57;;;2.63;;
21038;SDS011;10678;51.002;4.786;2023-08-17T04:25:08;11.40;;;2.78;;
21038;SDS011;10678;51.002;4.786;2023-08-17T04:27:34;8.52;;;2.60;;
21038;SDS011;10678;51.002;4.786;2023-08-17T04:30:00;9.88;;;3.30;;
21038;SDS011;10678;51.002;4.786;2023-08-17T04:32:26;9.30;;;2.70;;
21038;SDS011;10678;51.002;4.786;2023-08-17T04:34:52;8.82;;;2.80;;
21038;SDS011;10678;51.002;4.786;2023-08-17T04:37:17;6.60;;;2.47;;
21038;SDS011;10678;51.002;4.786;2023-08-17T04:39:43;7.65;;;2.95;;
21038;SDS011;10678;51.002;4.786;2023-08-17T04:42:09;7.95;;;2.63;;
21038;SDS011;10678;51.002;4.786;2023-08-17T04:44:35;8.98;;;2.70;;
21038;SDS011;10678;51.002;4.786;2023-08-17T04:47:01;4.93;;;2.33;;
21038;SDS011;10678;51.002;4.786;2023-08-17T04:49:27;5.68;;;2.50;;
21038;SDS011;10678;51.002;4.786;2023-08-17T04:51:53;7.28;;;2.90;;
21038;SDS011;10678;51.002;4.786;2023-08-17T04:54:18;10.63;;;3.17;;
21038;SDS011;10678;51.002;4.786;2023-08-17T04:56:44;8.52;;;2.88;;
21038;SDS011;10678;51.002;4.786;2023-08-17T04:59:10;8.52;;;2.70;;
21038;SDS011;10678;51.002;4.786;2023-08-17T05:01:36;6.85;;;2.58;;
21038;SDS011;10678;51.002;4.786;2023-08-17T05:04:02;7.82;;;2.63;;
21038;SDS011;10678;51.002;4.786;2023-08-17T05:06:28;5.35;;;2.20;;
21038;SDS011;10678;51.002;4.786;2023-08-17T05:08:54;6.97;;;2.85;;
21038;SDS011;10678;51.002;4.786;2023-08-17T05:11:20;7.03;;;2.40;;
21038;SDS011;10678;51.002;4.786;2023-08-17T05:13:46;7.10;;;3.20;;
21038;SDS011;10678;51.002;4.786;2023-08-17T05:16:11;9.52;;;2.60;;
21038;SDS011;10678;51.002;4.786;2023-08-17T05:18:37;16.05;;;2.97;;
21038;SDS011;10678;51.002;4.786;2023-08-17T05:21:03;15.43;;;3.00;;
21038;SDS011;10678;51.002;4.786;2023-08-17T05:23:28;10.77;;;2.80;;
21038;SDS011;10678;51.002;4.786;2023-08-17T05:25:54;14.35;;;2.70;;
21038;SDS011;10678;51.002;4.786;2023-08-17T05:28:20;6.85;;;2.72;;
21038;SDS011;10678;51.002;4.786;2023-08-17T05:30:46;7.72;;;2.80;;
21038;SDS011;10678;51.002;4.786;2023-08-17T05:33:11;6.60;;;2.42;;
21038;SDS011;10678;51.002;4.786;2023-08-17T05:35:37;8.32;;;2.85;;
21038;SDS011;10678;51.002;4.786;2023-08-17T05:38:03;7.63;;;2.63;;
21038;SDS011;10678;51.002;4.786;2023-08-17T05:40:29;6.88;;;2.80;;
21038;SDS011;10678;51.002;4.786;2023-08-17T05:42:55;7.18;;;2.75;;
21038;SDS011;10678;51.002;4.786;2023-08-17T05:45:21;11.32;;;2.85;;
21038;SDS011;10678;51.002;4.786;2023-08-17T05:47:47;10.15;;;2.92;;
21038;SDS011;10678;51.002;4.786;2023-08-17T05:50:12;8.52;;;2.75;;
21038;SDS011;10678;51.002;4.786;2023-08-17T05:52:38;9.00;;;3.20;;
21038;SDS011;10678;51.002;4.786;2023-08-17T05:55:05;7.78;;;2.67;;
21038;SDS011;10678;51.002;4.786;2023-08-17T05:57:31;8.82;;;3.00;;
21038;SDS011;10678;51.002;4.786;2023-08-17T05:59:56;8.23;;;2.50;;
21038;SDS011;10678;51.002;4.786;2023-08-17T06:02:22;6.68;;;2.55;;
21038;SDS011;10678;51.002;4.786;2023-08-17T06:04:48;9.50;;;3.00;;
21038;SDS011;10678;51.002;4.786;2023-08-17T06:07:13;8.98;;;3.42;;
21038;SDS011;10678;51.002;4.786;2023-08-17T06:09:39;9.23;;;2.80;;
21038;SDS011;10678;51.002;4.786;2023-08-17T06:12:05;6.03;;;2.80;;
21038;SDS011;10678;51.002;4.786;2023-08-17T06:14:32;9.15;;;2.90;;
21038;SDS011;10678;51.002;4.786;2023-08-17T06:16:58;12.13;;;3.13;;
21038;SDS011;10678;51.002;4.786;2023-08-17T06:19:23;8.60;;;2.80;;
21038;SDS011;10678;51.002;4.786;2023-08-17T06:21:49;8.23;;;2.70;;
21038;SDS011;10678;51.002;4.786;2023-08-17T06:24:15;7.72;;;2.78;;
21038;SDS011;10678;51.002;4.786;2023-08-17T06:26:40;6.50;;;3.25;;
21038;SDS011;10678;51.002;4.786;2023-08-17T06:29:06;6.30;;;2.92;;
21038;SDS011;10678;51.002;4.786;2023-08-17T06:31:32;12.48;;;3.20;;
21038;SDS011;10678;51.002;4.786;2023-08-17T06:33:58;6.72;;;2.92;;
21038;SDS011;10678;51.002;4.786;2023-08-17T06:36:24;10.35;;;3.10;;
21038;SDS011;10678;51.002;4.786;2023-08-17T06:38:49;12.13;;;3.40;;
21038;SDS011;10678;51.002;4.786;2023-08-17T06:41:15;11.05;;;3.10;;
21038;SDS011;10678;51.002;4.786;2023-08-17T06:43:42;6.93;;;2.67;;
21038;SDS011;10678;51.002;4.786;2023-08-17T06:46:07;6.85;;;2.83;;
21038;SDS011;10678;51.002;4.786;2023-08-17T06:48:33;8.25;;;3.08;;
21038;SDS011;10678;51.002;4.786;2023-08-17T06:50:58;10.88;;;2.80;;
21038;SDS011;10678;51.002;4.786;2023-08-17T06:53:24;12.50;;;2.90;;
21038;SDS011;10678;51.002;4.786;2023-08-17T06:55:50;7.80;;;2.90;;
21038;SDS011;10678;51.002;4.786;2023-08-17T06:58:15;7.15;;;3.35;;
21038;SDS011;10678;51.002;4.786;2023-08-17T07:00:41;11.25;;;2.85;;
21038;SDS011;10678;51.002;4.786;2023-08-17T07:03:08;12.93;;;2.97;;
21038;SDS011;10678;51.002;4.786;2023-08-17T07:05:34;7.53;;;2.83;;
21038;SDS011;10678;51.002;4.786;2023-08-17T07:08:00;7.50;;;2.47;;
21038;SDS011;10678;51.002;4.786;2023-08-17T07:10:26;11.65;;;3.10;;
21038;SDS011;10678;51.002;4.786;2023-08-17T07:12:52;8.73;;;3.10;;
21038;SDS011;10678;51.002;4.786;2023-08-17T07:15:18;6.57;;;2.63;;
21038;SDS011;10678;51.002;4.786;2023-08-17T07:17:44;9.55;;;2.60;;
21038;SDS011;10678;51.002;4.786;2023-08-17T07:20:09;7.90;;;2.92;;
21038;SDS011;10678;51.002;4.786;2023-08-17T07:22:36;8.15;;;2.47;;
21038;SDS011;10678;51.002;4.786;2023-08-17T07:25:02;14.18;;;2.67;;
21038;SDS011;10678;51.002;4.786;2023-08-17T07:27:28;5.63;;;2.58;;
21038;SDS011;10678;51.002;4.786;2023-08-17T07:29:54;7.25;;;2.80;;
21038;SDS011;10678;51.002;4.786;2023-08-17T07:32:20;7.15;;;2.75;;
21038;SDS011;10678;51.002;4.786;2023-08-17T07:34:47;7.30;;;3.00;;
21038;SDS011;10678;51.002;4.786;2023-08-17T07:37:12;8.32;;;2.80;;
21038;SDS011;10678;51.002;4.786;2023-08-17T07:39:38;10.05;;;2.70;;
21038;SDS011;10678;51.002;4.786;2023-08-17T07:42:04;8.13;;;3.03;;
21038;SDS011;10678;51.002;4.786;2023-08-17T07:44:29;6.28;;;2.70;;
21038;SDS011;10678;51.002;4.786;2023-08-17T07:46:57;6.93;;;2.85;;
21038;SDS011;10678;51.002;4.786;2023-08-17T07:49:24;10.10;;;2.88;;
21038;SDS011;10678;51.002;4.786;2023-08-17T07:51:50;7.10;;;2.50;;
21038;SDS011;10678;51.002;4.786;2023-08-17T07:54:15;10.77;;;2.85;;
21038;SDS011;10678;51.002;4.786;2023-08-17T07:56:41;8.82;;;3.00;;
21038;SDS011;10678;51.002;4.786;2023-08-17T07:59:07;8.95;;;3.00;;
21038;SDS011;10678;51.002;4.786;2023-08-17T08:01:32;6.30;;;2.92;;
21038;SDS011;10678;51.002;4.786;2023-08-17T08:03:58;9.50;;;2.90;;
21038;SDS011;10678;51.002;4.786;2023-08-17T08:06:23;12.20;;;3.20;;
21038;SDS011;10678;51.002;4.786;2023-08-17T08:08:49;13.25;;;2.38;;
21038;SDS011;10678;51.002;4.786;2023-08-17T08:11:15;11.10;;;2.78;;
21038;SDS011;10678;51.002;4.786;2023-08-17T08:13:40;7.50;;;3.20;;
21038;SDS011;10678;51.002;4.786;2023-08-17T08:16:06;10.73;;;3.42;;
21038;SDS011;10678;51.002;4.786;2023-08-17T08:18:33;10.00;;;3.50;;
21038;SDS011;10678;51.002;4.786;2023-08-17T08:20:58;9.07;;;3.70;;
21038;SDS011;10678;51.002;4.786;2023-08-17T08:23:24;10.00;;;4.00;;
21038;SDS011;10678;51.002;4.786;2023-08-17T08:25:51;9.15;;;3.40;;
21038;SDS011;10678;51.002;4.786;2023-08-17T08:28:16;8.93;;;3.70;;
21038;SDS011;10678;51.002;4.786;2023-08-17T08:30:42;8.82;;;4.05;;
21038;SDS011;10678;51.002;4.786;2023-08-17T08:33:08;9.32;;;4.32;;
21038;SDS011;10678;51.002;4.786;2023-08-17T08:35:33;12.40;;;4.28;;
21038;SDS011;10678;51.002;4.786;2023-08-17T08:37:59;9.45;;;4.13;;
21038;SDS011;10678;51.002;4.786;2023-08-17T08:40:28;9.77;;;3.63;;
21038;SDS011;10678;51.002;4.786;2023-08-17T08:42:55;10.98;;;4.05;;
21038;SDS011;10678;51.002;4.786;2023-08-17T08:45:22;11.73;;;4.35;;
21038;SDS011;10678;51.002;4.786;2023-08-17T08:47:48;9.27;;;4.50;;
21038;SDS011;10678;51.002;4.786;2023-08-17T08:50:19;10.70;;;4.80;;
21038;SDS011;10678;51.002;4.786;2023-08-17T08:52:58;10.75;;;4.18;;
21038;SDS011;10678;51.002;4.786;2023-08-17T08:55:26;9.60;;;4.90;;
21038;SDS011;10678;51.002;4.786;2023-08-17T08:57:55;8.73;;;4.70;;
21038;SDS011;10678;51.002;4.786;2023-08-17T09:00:21;11.00;;;4.47;;
21038;SDS011;10678;51.002;4.786;2023-08-17T09:02:49;8.90;;;3.95;;
21038;SDS011;10678;51.002;4.786;2023-08-17T09:05:16;8.52;;;4.15;;
21038;SDS011;10678;51.002;4.786;2023-08-17T09:07:42;12.27;;;4.72;;
21038;SDS011;10678;51.002;4.786;2023-08-17T09:10:09;9.68;;;3.75;;
21038;SDS011;10678;51.002;4.786;2023-08-17T09:12:35;9.68;;;4.25;;
21038;SDS011;10678;51.002;4.786;2023-08-17T09:15:01;8.15;;;3.80;;
21038;SDS011;10678;51.002;4.786;2023-08-17T09:17:27;11.68;;;4.72;;
21038;SDS011;10678;51.002;4.786;2023-08-17T09:19:53;8.00;;;3.90;;
21038;SDS011;10678;51.002;4.786;2023-08-17T09:22:36;9.80;;;4.63;;
21038;SDS011;10678;51.002;4.786;2023-08-17T09:25:04;12.48;;;5.10;;
21038;SDS011;10678;51.002;4.786;2023-08-17T09:27:33;10.50;;;5.20;;
21038;SDS011;10678;51.002;4.786;2023-08-17T09:30:04;9.20;;;4.90;;
21038;SDS011;10678;51.002;4.786;2023-08-17T09:32:31;11.60;;;5.97;;
21038;SDS011;10678;51.002;4.786;2023-08-17T09:35:07;13.77;;;5.88;;
21038;SDS011;10678;51.002;4.786;2023-08-17T09:37:33;10.77;;;5.30;;
21038;SDS011;10678;51.002;4.786;2023-08-17T09:39:59;13.20;;;6.75;;
21038;SDS011;10678;51.002;4.786;2023-08-17T09:42:25;12.55;;;6.35;;
21038;SDS011;10678;51.002;4.786;2023-08-17T09:44:52;11.88;;;5.63;;
21038;SDS011;10678;51.002;4.786;2023-08-17T09:47:18;9.32;;;5.50;;
21038;SDS011;10678;51.002;4.786;2023-08-17T09:49:52;11.43;;;5.38;;
21038;SDS011;10678;51.002;4.786;2023-08-17T09:52:19;7.80;;;5.18;;
21038;SDS011;10678;51.002;4.786;2023-08-17T09:54:45;10.20;;;5.60;;
21038;SDS011;10678;51.002;4.786;2023-08-17T09:57:12;14.32;;;6.18;;
21038;SDS011;10678;51.002;4.786;2023-08-17T09:59:38;12.38;;;5.68;;
21038;SDS011;10678;51.002;4.786;2023-08-17T10:02:06;15.80;;;5.90;;
21038;SDS011;10678;51.002;4.786;2023-08-17T10:04:44;12.77;;;5.88;;
21038;SDS011;10678;51.002;4.786;2023-08-17T10:07:14;11.00;;;5.70;;
21038;SDS011;10678;51.002;4.786;2023-08-17T10:09:42;11.75;;;5.75;;
21038;SDS011;10678;51.002;4.786;2023-08-17T10:12:11;12.18;;;5.82;;
21038;SDS011;10678;51.002;4.786;2023-08-17T10:14:51;13.45;;;6.93;;
21038;SDS011;10678;51.002;4.786;2023-08-17T10:17:25;14.98;;;7.28;;
21038;SDS011;10678;51.002;4.786;2023-08-17T10:19:54;19.13;;;7.95;;
21038;SDS011;10678;51.002;4.786;2023-08-17T10:22:27;13.63;;;6.93;;
21038;SDS011;10678;51.002;4.786;2023-08-17T10:24:57;12.73;;;7.25;;
21038;SDS011;10678;51.002;4.786;2023-08-17T10:27:24;13.98;;;7.72;;
21038;SDS011;10678;51.002;4.786;2023-08-17T10:29:51;19.10;;;8.00;;
21038;SDS011;10678;51.002;4.786;2023-08-17T10:32:17;18.00;;;7.55;;
21038;SDS011;10678;51.002;4.786;2023-08-17T10:34:46;18.33;;;8.05;;
21038;SDS011;10678;51.002;4.786;2023-08-17T10:37:12;20.95;;;7.40;;
21038;SDS011;10678;51.002;4.786;2023-08-17T10:39:44;17.52;;;8.30;;
21038;SDS011;10678;51.002;4.786;2023-08-17T10:42:11;18.40;;;8.63;;
21038;SDS011;10678;51.002;4.786;2023-08-17T10:49:58;16.70;;;8.30;;
21038;SDS011;10678;51.002;4.786;2023-08-17T10:52:32;16.35;;;8.05;;
21038;SDS011;10678;51.002;4.786;2023-08-17T10:55:00;19.17;;;9.30;;
21038;SDS011;10678;51.002;4.786;2023-08-17T11:02:59;15.55;;;7.93;;
21038;SDS011;10678;51.002;4.786;2023-08-17T11:05:33;12.35;;;7.22;;
21038;SDS011;10678;51.002;4.786;2023-08-17T11:07:59;15.50;;;8.38;;
21038;SDS011;10678;51.002;4.786;2023-08-17T11:12:52;12.77;;;9.20;;
21038;SDS011;10678;51.002;4.786;2023-08-17T11:15:24;15.07;;;8.57;;
21038;SDS011;10678;51.002;4.786;2023-08-17T11:17:51;15.52;;;8.13;;
21038;SDS011;10678;51.002;4.786;2023-08-17T11:20:17;17.85;;;8.23;;
21038;SDS011;10678;51.002;4.786;2023-08-17T11:22:43;13.63;;;7.82;;
21038;SDS011;10678;51.002;4.786;2023-08-17T11:25:11;13.15;;;7.80;;
21038;SDS011;10678;51.002;4.786;2023-08-17T11:27:36;14.30;;;8.30;;
21038;SDS011;10678;51.002;4.786;2023-08-17T11:30:02;16.73;;;9.13;;
21038;SDS011;10678;51.002;4.786;2023-08-17T11:32:29;21.20;;;8.57;;
21038;SDS011;10678;51.002;4.786;2023-08-17T11:34:54;16.52;;;9.32;;
21038;SDS011;10678;51.002;4.786;2023-08-17T11:37:20;18.40;;;9.93;;
21038;SDS011;10678;51.002;4.786;2023-08-17T11:39:47;17.75;;;9.50;;
21038;SDS011;10678;51.002;4.786;2023-08-17T11:42:12;15.15;;;9.55;;
21038;SDS011;10678;51.002;4.786;2023-08-17T11:44:38;15.90;;;9.18;;
21038;SDS011;10678;51.002;4.786;2023-08-17T11:47:04;14.70;;;7.40;;
21038;SDS011;10678;51.002;4.786;2023-08-17T11:49:31;14.90;;;7.63;;
21038;SDS011;10678;51.002;4.786;2023-08-17T11:51:57;14.95;;;8.38;;
21038;SDS011;10678;51.002;4.786;2023-08-17T11:54:22;15.93;;;7.88;;
21038;SDS011;10678;51.002;4.786;2023-08-17T11:56:48;18.30;;;8.95;;
21038;SDS011;10678;51.002;4.786;2023-08-17T11:59:14;14.80;;;7.78;;
21038;SDS011;10678;51.002;4.786;2023-08-17T12:01:43;13.60;;;7.80;;
21038;SDS011;10678;51.002;4.786;2023-08-17T12:04:09;15.80;;;9.85;;
21038;SDS011;10678;51.002;4.786;2023-08-17T12:06:35;15.15;;;9.68;;
21038;SDS011;10678;51.002;4.786;2023-08-17T12:09:08;14.63;;;9.38;;
21038;SDS011;10678;51.002;4.786;2023-08-17T12:11:34;14.30;;;9.10;;
21038;SDS011;10678;51.002;4.786;2023-08-17T12:13:59;13.23;;;9.50;;
21038;SDS011;10678;51.002;4.786;2023-08-17T12:16:44;15.18;;;9.23;;
21038;SDS011;10678;51.002;4.786;2023-08-17T12:19:16;16.23;;;10.48;;
21038;SDS011;10678;51.002;4.786;2023-08-17T12:21:42;15.55;;;10.00;;
21038;SDS011;10678;51.002;4.786;2023-08-17T12:24:10;18.35;;;10.15;;
21038;SDS011;10678;51.002;4.786;2023-08-17T12:26:45;10.88;;;8.18;;
21038;SDS011;10678;51.002;4.786;2023-08-17T12:29:12;17.02;;;8.75;;
21038;SDS011;10678;51.002;4.786;2023-08-17T12:31:38;12.25;;;8.52;;
21038;SDS011;10678;51.002;4.786;2023-08-17T12:34:03;11.30;;;7.90;;
21038;SDS011;10678;51.002;4.786;2023-08-17T12:36:31;13.40;;;9.07;;
21038;SDS011;10678;51.002;4.786;2023-08-17T12:39:03;11.75;;;7.88;;
21038;SDS011;10678;51.002;4.786;2023-08-17T12:41:29;11.45;;;8.07;;
21038;SDS011;10678;51.002;4.786;2023-08-17T12:43:55;16.30;;;8.88;;
21038;SDS011;10678;51.002;4.786;2023-08-17T12:46:24;15.30;;;8.90;;
21038;SDS011;10678;51.002;4.786;2023-08-17T12:48:50;18.77;;;9.93;;
21038;SDS011;10678;51.002;4.786;2023-08-17T12:51:15;13.70;;;8.90;;
21038;SDS011;10678;51.002;4.786;2023-08-17T12:53:41;16.83;;;10.25;;
21038;SDS011;10678;51.002;4.786;2023-08-17T12:56:07;15.43;;;9.40;;
21038;SDS011;10678;51.002;4.786;2023-08-17T12:58:33;16.98;;;10.20;;
21038;SDS011;10678;51.002;4.786;2023-08-17T13:00:59;14.20;;;10.00;;
21038;SDS011;10678;51.002;4.786;2023-08-17T13:03:24;19.55;;;9.77;;
21038;SDS011;10678;51.002;4.786;2023-08-17T13:05:50;18.88;;;9.43;;
21038;SDS011;10678;51.002;4.786;2023-08-17T13:08:16;14.25;;;9.55;;
21038;SDS011;10678;51.002;4.786;2023-08-17T13:10:41;16.83;;;9.38;;
21038;SDS011;10678;51.002;4.786;2023-08-17T13:13:07;15.32;;;9.43;;
21038;SDS011;10678;51.002;4.786;2023-08-17T13:15:33;17.15;;;8.80;;
21038;SDS011;10678;51.002;4.786;2023-08-17T13:17:59;13.35;;;10.43;;
21038;SDS011;10678;51.002;4.786;2023-08-17T13:20:25;14.55;;;10.18;;
21038;SDS011;10678;51.002;4.786;2023-08-17T13:22:50;16.95;;;11.88;;
21038;SDS011;10678;51.002;4.786;2023-08-17T13:25:16;17.52;;;12.23;;
21038;SDS011;10678;51.002;4.786;2023-08-17T13:27:42;17.67;;;12.50;;
21038;SDS011;10678;51.002;4.786;2023-08-17T13:30:08;22.13;;;13.07;;
21038;SDS011;10678;51.002;4.786;2023-08-17T13:32:34;21.80;;;12.38;;
21038;SDS011;10678;51.002;4.786;2023-08-17T13:35:01;17.35;;;11.95;;
21038;SDS011;10678;51.002;4.786;2023-08-17T13:37:27;17.95;;;12.65;;
21038;SDS011;10678;51.002;4.786;2023-08-17T13:39:53;20.45;;;12.05;;
21038;SDS011;10678;51.002;4.786;2023-08-17T13:42:19;18.35;;;11.93;;
21038;SDS011;10678;51.002;4.786;2023-08-17T13:44:44;16.33;;;11.32;;
21038;SDS011;10678;51.002;4.786;2023-08-17T13:47:10;17.40;;;10.13;;
21038;SDS011;10678;51.002;4.786;2023-08-17T13:49:37;15.02;;;9.48;;
21038;SDS011;10678;51.002;4.786;2023-08-17T13:52:03;16.67;;;9.73;;
21038;SDS011;10678;51.002;4.786;2023-08-17T13:54:29;19.48;;;10.68;;
21038;SDS011;10678;51.002;4.786;2023-08-17T13:56:54;12.77;;;9.35;;
21038;SDS011;10678;51.002;4.786;2023-08-17T13:59:20;16.65;;;9.73;;
21038;SDS011;10678;51.002;4.786;2023-08-17T14:01:46;14.13;;;10.23;;
21038;SDS011;10678;51.002;4.786;2023-08-17T14:04:11;16.27;;;11.00;;
21038;SDS011;10678;51.002;4.786;2023-08-17T14:06:37;19.25;;;10.50;;
21038;SDS011;10678;51.002;4.786;2023-08-17T14:09:04;16.92;;;9.35;;
21038;SDS011;10678;51.002;4.786;2023-08-17T14:11:30;18.45;;;10.50;;
21038;SDS011;10678;51.002;4.786;2023-08-17T14:13:55;16.92;;;9.85;;
21038;SDS011;10678;51.002;4.786;2023-08-17T14:16:21;16.48;;;10.15;;
21038;SDS011;10678;51.002;4.786;2023-08-17T14:18:47;18.05;;;10.32;;
21038;SDS011;10678;51.002;4.786;2023-08-17T14:21:13;17.98;;;11.23;;
21038;SDS011;10678;51.002;4.786;2023-08-17T14:23:38;15.10;;;11.07;;
21038;SDS011;10678;51.002;4.786;2023-08-17T14:26:05;16.48;;;10.20;;
21038;SDS011;10678;51.002;4.786;2023-08-17T14:28:30;17.65;;;9.98;;
21038;SDS011;10678;51.002;4.786;2023-08-17T14:30:56;16.00;;;10.40;;
21038;SDS011;10678;51.002;4.786;2023-08-17T14:33:22;21.50;;;11.43;;
21038;SDS011;10678;51.002;4.786;2023-08-17T14:35:48;18.42;;;9.88;;
21038;SDS011;10678;51.002;4.786;2023-08-17T14:38:14;15.55;;;10.10;;
21038;SDS011;10678;51.002;4.786;2023-08-17T14:40:43;17.92;;;11.95;;
21038;SDS011;10678;51.002;4.786;2023-08-17T14:43:13;18.60;;;11.77;;
21038;SDS011;10678;51.002;4.786;2023-08-17T14:45:42;18.90;;;11.45;;
21038;SDS011;10678;51.002;4.786;2023-08-17T14:48:08;18.80;;;12.52;;
21038;SDS011;10678;51.002;4.786;2023-08-17T14:50:37;18.92;;;11.93;;
21038;SDS011;10678;51.002;4.786;2023-08-17T14:53:03;20.10;;;11.98;;
21038;SDS011;10678;51.002;4.786;2023-08-17T14:55:32;18.67;;;11.73;;